createdAt,value
2019-04-28T00:00:37.038Z,99.90
2019-04-28T00:03:05.764Z,99.90
2019-04-28T00:05:34.265Z,99.90
2019-04-28T00:08:02.760Z,99.90
2019-04-28T00:10:32.032Z,99.90
2019-04-28T00:13:01.049Z,99.90
2019-04-28T00:15:30.803Z,99.90
2019-04-28T00:17:59.552Z,99.90
2019-04-28T00:20:32.389Z,99.90
2019-04-28T00:23:03.841Z,99.90
2019-04-28T00:25:52.378Z,99.90
2019-04-28T00:28:21.266Z,99.90
2019-04-28T00:30:51.617Z,99.90
2019-04-28T00:33:20.086Z,99.90
2019-04-28T00:35:48.550Z,99.90
2019-04-28T00:38:17.031Z,99.90
2019-04-28T00:40:45.566Z,99.90
2019-04-28T00:43:14.078Z,99.90
2019-04-28T00:45:42.565Z,99.90
2019-04-28T00:48:11.056Z,99.90
2019-04-28T00:50:41.339Z,99.90
2019-04-28T00:53:11.668Z,99.90
2019-04-28T00:55:41.674Z,99.90
2019-04-28T00:58:10.895Z,99.90
2019-04-28T01:00:43.674Z,99.90
2019-04-28T01:03:12.149Z,99.90
2019-04-28T01:05:41.192Z,99.90
2019-04-28T01:08:10.989Z,99.90
2019-04-28T01:10:40.992Z,99.90
2019-04-28T01:13:11.597Z,99.90
2019-04-28T01:15:47.329Z,99.90
2019-04-28T01:18:17.458Z,99.90
2019-04-28T01:20:46.019Z,99.90
2019-04-28T01:23:14.557Z,99.90
2019-04-28T01:25:43.036Z,99.90
2019-04-28T01:28:11.542Z,99.90
2019-04-28T01:30:47.225Z,99.90
2019-04-28T01:33:20.640Z,99.90
2019-04-28T01:35:49.438Z,99.90
2019-04-28T01:38:17.954Z,99.90
2019-04-28T01:40:46.528Z,99.90
2019-04-28T01:43:15.024Z,99.90
2019-04-28T01:45:43.562Z,99.90
2019-04-28T01:48:12.034Z,99.90
2019-04-28T01:50:40.540Z,99.90
2019-04-28T01:53:09.729Z,99.90
2019-04-28T01:55:39.307Z,99.90
2019-04-28T01:58:09.579Z,99.90
2019-04-28T02:00:40.428Z,99.90
2019-04-28T02:03:10.346Z,99.90
2019-04-28T02:05:40.533Z,99.90
2019-04-28T02:08:10.188Z,99.90
2019-04-28T02:10:40.156Z,99.90
2019-04-28T02:13:09.605Z,99.90
2019-04-28T02:15:40.033Z,99.90
2019-04-28T02:18:09.939Z,99.90
2019-04-28T02:20:40.136Z,99.90
2019-04-28T02:23:10.274Z,99.90
2019-04-28T02:25:39.894Z,99.90
2019-04-28T02:28:09.365Z,99.90
2019-04-28T02:30:47.693Z,99.90
2019-04-28T02:33:11.054Z,99.90
2019-04-28T02:35:41.766Z,99.90
2019-04-28T02:38:11.502Z,99.90
2019-04-28T02:40:40.734Z,99.90
2019-04-28T02:43:11.388Z,99.90
2019-04-28T02:45:41.285Z,99.90
2019-04-28T02:48:11.677Z,99.90
2019-04-28T02:51:01.246Z,99.90
2019-04-28T02:53:33.714Z,99.90
2019-04-28T02:56:01.435Z,99.90
2019-04-28T02:58:31.271Z,99.90
2019-04-28T03:01:11.192Z,99.90
2019-04-28T03:03:30.835Z,99.90
2019-04-28T03:06:01.353Z,99.90
2019-04-28T03:08:30.649Z,99.90
2019-04-28T03:11:00.952Z,99.90
2019-04-28T03:13:31.233Z,99.90
2019-04-28T03:16:01.452Z,99.90
2019-04-28T03:18:31.707Z,99.90
2019-04-28T03:21:03.535Z,99.90
2019-04-28T03:23:31.363Z,99.90
2019-04-28T03:26:04.066Z,99.90
2019-04-28T03:28:34.197Z,99.90
2019-04-28T03:31:34.803Z,99.90
2019-04-28T03:33:41.362Z,99.90
2019-04-28T03:36:08.626Z,99.90
2019-04-28T03:38:35.121Z,99.90
2019-04-28T03:41:03.927Z,99.90
2019-04-28T03:43:32.429Z,99.90
2019-04-28T03:46:03.543Z,99.90
2019-04-28T03:48:33.761Z,99.90
2019-04-28T03:51:02.404Z,99.90
2019-04-28T03:53:31.401Z,99.90
2019-04-28T03:56:01.571Z,99.90
2019-04-28T03:58:31.163Z,99.90
2019-04-28T04:01:02.688Z,99.90
2019-04-28T04:03:30.601Z,99.90
2019-04-28T04:06:00.868Z,99.90
2019-04-28T04:08:31.036Z,99.90
2019-04-28T04:11:01.444Z,99.90
2019-04-28T04:13:34.471Z,99.90
2019-04-28T04:16:16.443Z,99.90
2019-04-28T04:18:52.987Z,99.90
2019-04-28T04:21:21.353Z,99.90
2019-04-28T04:23:50.991Z,99.90
2019-04-28T04:26:21.429Z,99.90
2019-04-28T04:28:51.472Z,99.90
2019-04-28T04:31:20.128Z,99.90
2019-04-28T04:33:50.569Z,99.90
2019-04-28T04:36:21.097Z,99.90
2019-04-28T04:38:51.230Z,99.90
2019-04-28T04:41:20.229Z,99.90
2019-04-28T04:43:51.282Z,99.90
2019-04-28T04:46:21.855Z,99.90
2019-04-28T04:48:51.246Z,99.90
2019-04-28T04:51:21.331Z,99.90
2019-04-28T04:53:51.352Z,99.90
2019-04-28T04:56:21.395Z,99.90
2019-04-28T04:58:50.571Z,99.90
2019-04-28T05:01:33.183Z,99.90
2019-04-28T05:04:09.586Z,99.90
2019-04-28T05:06:41.745Z,99.90
2019-04-28T05:09:10.783Z,99.90
2019-04-28T05:11:40.143Z,99.90
2019-04-28T05:14:11.531Z,99.90
2019-04-28T05:16:39.981Z,99.90
2019-04-28T05:19:10.119Z,99.90
2019-04-28T05:21:40.169Z,99.90
2019-04-28T05:24:25.231Z,99.90
2019-04-28T05:26:53.774Z,99.90
2019-04-28T05:29:26.950Z,99.90
2019-04-28T05:31:54.760Z,99.90
2019-04-28T05:34:24.267Z,99.90
2019-04-28T05:36:53.029Z,99.90
2019-04-28T05:39:21.539Z,99.90
2019-04-28T05:41:50.510Z,99.90
2019-04-28T05:44:20.172Z,99.90
2019-04-28T05:46:50.632Z,99.90
2019-04-28T05:49:23.999Z,99.90
2019-04-28T05:51:54.094Z,99.90
2019-04-28T05:54:27.164Z,99.90
2019-04-28T05:57:02.438Z,99.90
2019-04-28T05:59:50.006Z,99.90
2019-04-28T06:02:39.697Z,99.90
2019-04-28T06:05:10.060Z,99.90
2019-04-28T06:07:42.840Z,99.90
2019-04-28T06:10:12.489Z,99.90
2019-04-28T06:12:41.160Z,99.90
2019-04-28T06:15:11.817Z,99.90
2019-04-28T06:17:40.119Z,99.90
2019-04-28T06:20:11.439Z,99.90
2019-04-28T06:22:39.171Z,99.90
2019-04-28T06:25:07.828Z,99.90
2019-04-28T06:27:36.578Z,99.90
2019-04-28T06:30:06.755Z,99.90
2019-04-28T06:32:35.679Z,99.90
2019-04-28T06:35:05.873Z,99.90
2019-04-28T06:37:34.355Z,99.90
2019-04-28T06:40:04.287Z,99.90
2019-04-28T06:42:32.753Z,99.90
2019-04-28T06:45:01.546Z,99.90
2019-04-28T06:47:30.009Z,99.90
2019-04-28T06:50:00.027Z,99.90
2019-04-28T06:52:28.503Z,99.90
2019-04-28T06:54:56.985Z,99.90
2019-04-28T06:57:25.485Z,99.90
2019-04-28T06:59:53.935Z,99.90
2019-04-28T07:02:22.377Z,99.90
2019-04-28T07:05:01.206Z,99.90
2019-04-28T07:07:21.090Z,99.90
2019-04-28T07:09:49.558Z,99.90
2019-04-28T07:12:18.085Z,99.90
2019-04-28T07:14:46.541Z,99.90
2019-04-28T07:17:15.041Z,99.90
2019-04-28T07:19:45.180Z,99.90
2019-04-28T07:22:27.236Z,99.90
2019-04-28T07:24:55.808Z,99.90
2019-04-28T07:27:24.263Z,99.90
2019-04-28T07:29:52.754Z,99.90
2019-04-28T07:32:22.082Z,99.90
2019-04-28T07:34:50.724Z,99.90
2019-04-28T07:37:19.421Z,99.90
2019-04-28T07:39:47.988Z,99.90
2019-04-28T07:42:16.503Z,99.90
2019-04-28T07:44:45.103Z,99.90
2019-04-28T07:47:15.505Z,99.90
2019-04-28T07:49:44.055Z,99.90
2019-04-28T07:52:14.106Z,99.90
2019-04-28T07:54:42.589Z,99.90
2019-04-28T07:57:11.042Z,99.90
2019-04-28T07:59:39.573Z,99.90
2019-04-28T08:02:08.388Z,99.90
2019-04-28T08:04:36.850Z,99.90
2019-04-28T08:07:05.293Z,99.90
2019-04-28T08:09:33.888Z,99.90
2019-04-28T08:12:02.401Z,98.60
2019-04-28T08:14:30.912Z,97.70
2019-04-28T08:16:59.416Z,98.00
2019-04-28T08:19:27.940Z,98.00
2019-04-28T08:21:56.466Z,97.40
2019-04-28T08:24:24.929Z,98.50
2019-04-28T08:26:53.416Z,99.10
2019-04-28T08:29:22.225Z,99.90
2019-04-28T08:31:55.037Z,99.90
2019-04-28T08:34:23.495Z,99.90
2019-04-28T08:36:51.949Z,99.90
2019-04-28T08:39:23.418Z,99.90
2019-04-28T08:41:50.620Z,99.90
2019-04-28T08:44:19.201Z,99.90
2019-04-28T08:46:47.640Z,99.90
2019-04-28T08:49:16.107Z,99.90
2019-04-28T08:51:44.544Z,99.90
2019-04-28T08:54:13.057Z,99.90
2019-04-28T08:56:41.499Z,99.10
2019-04-28T08:59:10.029Z,98.20
2019-04-28T09:01:38.547Z,97.70
2019-04-28T09:04:15.120Z,98.50
2019-04-28T09:06:37.294Z,99.50
2019-04-28T09:09:07.878Z,98.70
2019-04-28T09:11:36.323Z,97.90
2019-04-28T09:14:05.199Z,96.70
2019-04-28T09:16:34.557Z,95.80
2019-04-28T09:19:03.007Z,95.10
2019-04-28T09:21:31.478Z,93.70
2019-04-28T09:23:59.951Z,93.10
2019-04-28T09:26:28.468Z,94.20
2019-04-28T09:28:56.922Z,93.70
2019-04-28T09:31:25.380Z,92.70
2019-04-28T09:33:53.874Z,92.80
2019-04-28T09:36:22.341Z,93.40
2019-04-28T09:38:51.167Z,93.80
2019-04-28T09:41:19.656Z,94.10
2019-04-28T09:43:52.279Z,92.70
2019-04-28T09:46:22.386Z,92.60
2019-04-28T09:48:50.936Z,91.90
2019-04-28T09:51:19.508Z,94.10
2019-04-28T09:53:48.179Z,94.90
2019-04-28T09:56:16.774Z,93.70
2019-04-28T09:58:45.212Z,91.20
2019-04-28T10:01:13.643Z,89.90
2019-04-28T10:03:42.225Z,88.70
2019-04-28T10:06:10.672Z,89.30
2019-04-28T10:08:39.441Z,87.10
2019-04-28T10:11:07.913Z,88.30
2019-04-28T10:13:37.932Z,85.00
2019-04-28T10:18:36.612Z,84.70
2019-04-28T10:21:05.456Z,82.30
2019-04-28T10:23:33.917Z,79.40
2019-04-28T10:26:02.815Z,80.40
2019-04-28T10:28:31.304Z,79.10
2019-04-28T10:30:59.729Z,78.70
2019-04-28T10:33:28.193Z,78.70
2019-04-28T10:35:56.708Z,77.40
2019-04-28T10:38:25.167Z,75.90
2019-04-28T10:40:58.049Z,81.80
2019-04-28T10:43:26.748Z,75.50
2019-04-28T10:45:55.164Z,74.70
2019-04-28T10:48:23.664Z,75.90
2019-04-28T10:50:52.117Z,73.30
2019-04-28T10:53:20.552Z,76.90
2019-04-28T10:55:48.978Z,75.70
2019-04-28T10:58:17.421Z,76.20
2019-04-28T11:00:45.888Z,78.30
2019-04-28T11:03:14.338Z,80.60
2019-04-28T11:05:46.262Z,79.10
2019-04-28T11:08:24.946Z,81.00
2019-04-28T11:10:53.668Z,79.00
2019-04-28T11:13:22.209Z,80.60
2019-04-28T11:15:50.999Z,78.90
2019-04-28T11:18:21.193Z,77.70
2019-04-28T11:20:49.690Z,75.50
2019-04-28T11:23:18.229Z,67.70
2019-04-28T11:25:46.745Z,70.80
2019-04-28T11:28:15.221Z,68.10
2019-04-28T11:30:43.719Z,70.20
2019-04-28T11:33:30.242Z,76.00
2019-04-28T11:35:59.196Z,76.80
2019-04-28T11:38:27.604Z,77.00
2019-04-28T11:40:56.056Z,78.20
2019-04-28T11:43:24.573Z,81.30
2019-04-28T11:45:52.996Z,82.70
2019-04-28T11:48:21.471Z,84.40
2019-04-28T11:50:50.588Z,86.30
2019-04-28T11:53:20.269Z,89.10
2019-04-28T11:55:49.321Z,89.90
2019-04-28T11:58:17.794Z,90.50
2019-04-28T12:00:46.692Z,90.60
2019-04-28T12:03:17.240Z,90.90
2019-04-28T12:08:17.605Z,95.00
2019-04-28T12:10:47.872Z,93.70
2019-04-28T12:13:36.708Z,93.80
2019-04-28T12:16:16.416Z,95.70
2019-04-28T12:18:46.581Z,95.10
2019-04-28T12:21:16.270Z,96.80
2019-04-28T12:23:44.959Z,99.00
2019-04-28T12:26:13.376Z,97.50
2019-04-28T12:28:41.808Z,96.30
2019-04-28T12:31:10.523Z,99.10
2019-04-28T12:33:42.415Z,98.60
2019-04-28T12:36:12.389Z,98.10
2019-04-28T12:38:40.849Z,97.00
2019-04-28T12:41:09.314Z,99.40
2019-04-28T12:43:38.531Z,97.60
2019-04-28T12:46:06.948Z,98.10
2019-04-28T12:48:35.416Z,96.60
2019-04-28T12:51:05.192Z,98.50
2019-04-28T12:53:33.691Z,99.60
2019-04-28T12:56:02.221Z,99.40
2019-04-28T12:58:30.673Z,98.90
2019-04-28T13:01:17.971Z,98.50
2019-04-28T13:04:02.634Z,96.00
2019-04-28T13:06:31.635Z,98.60
2019-04-28T13:09:00.339Z,97.70
2019-04-28T13:11:28.795Z,97.80
2019-04-28T13:13:57.298Z,97.40
2019-04-28T13:16:25.776Z,97.20
2019-04-28T13:18:54.212Z,97.70
2019-04-28T13:21:22.662Z,97.60
2019-04-28T13:23:51.141Z,97.00
2019-04-28T13:26:19.611Z,97.70
2019-04-28T13:28:48.061Z,97.60
2019-04-28T13:31:16.481Z,98.10
2019-04-28T13:33:55.733Z,98.10
2019-04-28T13:36:15.457Z,98.10
2019-04-28T13:38:44.077Z,97.80
2019-04-28T13:41:12.504Z,98.50
2019-04-28T13:43:40.964Z,98.60
2019-04-28T13:46:09.492Z,98.50
2019-04-28T13:48:38.112Z,97.80
2019-04-28T13:51:12.519Z,97.60
2019-04-28T13:53:41.090Z,97.20
2019-04-28T13:56:10.079Z,97.60
2019-04-28T13:58:41.563Z,97.50
2019-04-28T14:01:11.891Z,97.50
2019-04-28T14:03:50.945Z,97.70
2019-04-28T14:06:28.095Z,97.00
2019-04-28T14:08:51.441Z,96.00
2019-04-28T14:11:19.884Z,95.20
2019-04-28T14:13:48.334Z,95.30
2019-04-28T14:16:16.742Z,95.20
2019-04-28T14:18:45.150Z,94.40
2019-04-28T14:21:13.577Z,94.60
2019-04-28T14:23:41.955Z,94.70
2019-04-28T14:26:10.366Z,93.80
2019-04-28T14:28:38.763Z,93.10
2019-04-28T14:31:07.166Z,93.20
2019-04-28T14:33:35.642Z,93.50
2019-04-28T14:36:04.083Z,93.10
2019-04-28T14:38:32.475Z,93.20
2019-04-28T14:41:00.879Z,92.70
2019-04-28T14:43:29.419Z,93.50
2019-04-28T14:45:58.067Z,93.70
2019-04-28T14:48:26.543Z,92.90
2019-04-28T14:50:54.962Z,93.50
2019-04-28T14:53:23.383Z,93.40
2019-04-28T14:58:19.846Z,91.20
2019-04-28T15:00:52.836Z,91.60
2019-04-28T15:03:22.909Z,91.70
2019-04-28T15:05:55.627Z,92.20
2019-04-28T15:08:34.637Z,91.60
2019-04-28T15:11:13.691Z,91.40
2019-04-28T15:13:42.196Z,91.40
2019-04-28T15:16:10.653Z,91.30
2019-04-28T15:18:39.038Z,91.60
2019-04-28T15:21:07.444Z,92.30
2019-04-28T15:23:35.846Z,92.40
2019-04-28T15:26:04.320Z,93.00
2019-04-28T15:28:32.723Z,92.60
2019-04-28T15:31:01.127Z,93.40
2019-04-28T15:33:29.764Z,92.70
2019-04-28T15:35:58.178Z,92.30
2019-04-28T15:38:26.648Z,93.50
2019-04-28T15:40:55.043Z,92.60
2019-04-28T15:43:23.450Z,93.10
2019-04-28T15:45:51.855Z,93.00
2019-04-28T15:48:20.262Z,94.40
2019-04-28T15:50:48.676Z,95.70
2019-04-28T15:53:17.074Z,96.00
2019-04-28T15:55:49.726Z,97.30
2019-04-28T15:58:34.776Z,97.80
2019-04-28T16:01:03.303Z,98.90
2019-04-28T16:03:31.707Z,98.40
2019-04-28T16:06:00.237Z,98.20
2019-04-28T16:08:28.825Z,99.10
2019-04-28T16:10:57.246Z,98.40
2019-04-28T16:13:25.785Z,97.50
2019-04-28T16:15:54.199Z,98.80
2019-04-28T16:18:22.600Z,98.90
2019-04-28T16:20:51.011Z,99.10
2019-04-28T16:23:19.419Z,99.40
2019-04-28T16:25:47.823Z,99.20
2019-04-28T16:28:16.227Z,99.00
2019-04-28T16:30:44.643Z,99.90
2019-04-28T16:33:13.112Z,99.90
2019-04-28T16:35:41.510Z,99.90
2019-04-28T16:38:09.923Z,99.90
2019-04-28T16:40:38.333Z,99.90
2019-04-28T16:43:09.818Z,99.80
2019-04-28T16:45:38.399Z,99.50
2019-04-28T16:48:06.798Z,99.80
2019-04-28T16:50:35.435Z,99.40
2019-04-28T16:53:03.919Z,99.40
2019-04-28T16:55:39.919Z,99.50
2019-04-28T16:58:12.892Z,99.60
2019-04-28T17:00:54.895Z,99.90
2019-04-28T17:03:23.390Z,99.40
2019-04-28T17:05:51.787Z,99.90
2019-04-28T17:08:20.496Z,99.60
2019-04-28T17:10:48.936Z,99.50
2019-04-28T17:13:17.363Z,98.70
2019-04-28T17:15:45.763Z,99.70
2019-04-28T17:18:14.175Z,99.90
2019-04-28T17:20:42.574Z,99.90
2019-04-28T17:23:11.211Z,99.10
2019-04-28T17:25:39.834Z,99.90
2019-04-28T17:28:08.236Z,99.90
2019-04-28T17:30:36.636Z,99.90
2019-04-28T17:33:05.066Z,99.90
2019-04-28T17:35:33.839Z,99.90
2019-04-28T17:38:06.626Z,99.90
2019-04-28T17:40:32.746Z,99.90
2019-04-28T17:43:01.147Z,99.90
2019-04-28T17:45:29.549Z,99.90
2019-04-28T17:47:59.615Z,99.90
2019-04-28T17:50:28.456Z,99.90
2019-04-28T17:52:56.857Z,99.90
2019-04-28T17:55:25.275Z,99.90
2019-04-28T17:57:53.678Z,99.90
2019-04-28T18:00:32.169Z,99.90
2019-04-28T18:03:11.007Z,99.90
2019-04-28T18:05:41.084Z,99.90
2019-04-28T18:08:20.433Z,99.90
2019-04-28T18:10:39.740Z,99.90
2019-04-28T18:13:08.148Z,99.90
2019-04-28T18:15:38.186Z,99.90
2019-04-28T18:18:10.971Z,99.90
2019-04-28T18:20:39.618Z,99.90
2019-04-28T18:23:08.032Z,99.90
2019-04-28T18:25:36.436Z,99.90
2019-04-28T18:28:04.851Z,99.90
2019-04-28T18:30:34.895Z,99.90
2019-04-28T18:33:07.718Z,99.90
2019-04-28T18:35:40.447Z,99.90
2019-04-28T18:38:19.172Z,99.90
2019-04-28T18:40:51.723Z,99.90
2019-04-28T18:43:21.771Z,99.90
2019-04-28T18:45:50.167Z,99.90
2019-04-28T18:48:18.612Z,99.90
2019-04-28T18:50:47.059Z,99.90
2019-04-28T18:53:15.468Z,99.90
2019-04-28T18:55:43.899Z,99.90
2019-04-28T18:58:12.301Z,99.90
2019-04-28T19:00:42.583Z,99.90
2019-04-28T19:03:11.008Z,99.90
2019-04-28T19:05:41.042Z,99.90
2019-04-28T19:08:17.223Z,99.90
2019-04-28T19:10:50.635Z,99.90
2019-04-28T19:13:23.182Z,99.90
2019-04-28T19:16:09.283Z,99.90
2019-04-28T19:18:42.354Z,99.90
2019-04-28T19:21:10.755Z,99.90
2019-04-28T19:23:39.233Z,99.90
2019-04-28T19:26:07.630Z,99.90
2019-04-28T19:28:36.031Z,99.90
2019-04-28T19:31:04.431Z,99.90
2019-04-28T19:33:32.828Z,99.90
2019-04-28T19:36:01.226Z,99.90
2019-04-28T19:38:29.642Z,99.90
2019-04-28T19:40:58.046Z,99.90
2019-04-28T19:43:26.439Z,99.90
2019-04-28T19:45:56.525Z,99.90
2019-04-28T19:48:24.915Z,99.90
2019-04-28T19:50:53.315Z,99.90
2019-04-28T19:53:21.718Z,99.90
2019-04-28T19:55:51.761Z,99.90
2019-04-28T19:58:21.799Z,99.90
2019-04-28T20:00:54.409Z,99.90
2019-04-28T20:03:22.803Z,99.90
2019-04-28T20:05:51.196Z,99.90
2019-04-28T20:08:19.614Z,99.90
2019-04-28T20:10:48.011Z,99.90
2019-04-28T20:13:16.423Z,99.90
2019-04-28T20:15:44.826Z,99.90
2019-04-28T20:18:13.228Z,99.90
2019-04-28T20:20:41.629Z,99.90
2019-04-28T20:23:10.046Z,99.90
2019-04-28T20:25:38.434Z,99.90
2019-04-28T20:28:06.834Z,99.90
2019-04-28T20:30:35.358Z,99.90
2019-04-28T20:33:07.231Z,99.90
2019-04-28T20:35:35.584Z,99.90
2019-04-28T20:38:08.487Z,99.90
2019-04-28T20:40:38.522Z,99.90
2019-04-28T20:43:11.256Z,99.90
2019-04-28T20:45:39.946Z,99.90
2019-04-28T20:48:08.347Z,99.90
2019-04-28T20:50:36.742Z,99.90
2019-04-28T20:53:05.138Z,99.90
2019-04-28T20:55:33.534Z,99.90
2019-04-28T20:58:01.938Z,99.90
2019-04-28T21:00:30.343Z,99.90
2019-04-28T21:02:58.741Z,99.90
2019-04-28T21:05:27.130Z,99.90
2019-04-28T21:07:55.536Z,99.90
2019-04-28T21:10:36.900Z,99.90
2019-04-28T21:12:54.291Z,99.90
2019-04-28T21:15:23.102Z,99.90
2019-04-28T21:17:51.499Z,99.90
2019-04-28T21:20:19.904Z,99.90
2019-04-28T21:22:48.319Z,99.90
2019-04-28T21:25:16.718Z,99.90
2019-04-28T21:27:45.120Z,99.90
2019-04-28T21:30:13.658Z,99.90
2019-04-28T21:32:42.071Z,99.90
2019-04-28T21:35:10.603Z,99.90
2019-04-28T21:37:39.002Z,99.90
2019-04-28T21:40:09.921Z,99.90
2019-04-28T21:42:56.067Z,99.90
2019-04-28T21:45:42.158Z,99.90
2019-04-28T21:48:11.529Z,99.90
2019-04-28T21:50:39.923Z,99.90
2019-04-28T21:53:08.407Z,99.90
2019-04-28T21:55:36.802Z,99.90
2019-04-28T21:58:05.202Z,99.90
2019-04-28T22:00:55.967Z,99.90
2019-04-28T22:03:24.536Z,99.90
2019-04-28T22:05:52.942Z,99.90
2019-04-28T22:08:21.372Z,99.90
2019-04-28T22:10:49.830Z,99.90
2019-04-28T22:13:18.230Z,99.90
2019-04-28T22:15:46.643Z,99.90
2019-04-28T22:18:15.043Z,99.90
2019-04-28T22:20:43.446Z,99.90
2019-04-28T22:23:18.768Z,99.90
2019-04-28T22:25:43.633Z,99.90
2019-04-28T22:28:12.030Z,99.90
2019-04-28T22:30:40.459Z,99.90
2019-04-28T22:33:08.858Z,99.90
2019-04-28T22:35:37.263Z,99.90
2019-04-28T22:38:05.690Z,99.90
2019-04-28T22:40:34.093Z,99.90
2019-04-28T22:43:02.502Z,99.90
2019-04-28T22:45:30.906Z,99.90
2019-04-28T22:47:59.615Z,99.90
2019-04-28T22:50:36.765Z,99.90
2019-04-28T22:53:05.233Z,99.90
2019-04-28T22:55:47.090Z,99.90
2019-04-28T22:58:22.816Z,99.90
2019-04-28T23:01:00.499Z,99.90
2019-04-28T23:03:33.318Z,99.90
2019-04-28T23:06:01.718Z,99.90
2019-04-28T23:08:30.190Z,99.90
2019-04-28T23:10:58.595Z,99.90
2019-04-28T23:13:27.002Z,99.90
2019-04-28T23:15:55.440Z,99.90
2019-04-28T23:18:23.906Z,99.90
2019-04-28T23:20:57.058Z,99.90
2019-04-28T23:23:25.546Z,99.90
2019-04-28T23:25:53.951Z,99.90
2019-04-28T23:28:22.346Z,99.90
2019-04-28T23:30:50.762Z,99.90
2019-04-28T23:33:19.234Z,99.90
2019-04-28T23:35:47.635Z,99.90
2019-04-28T23:38:16.048Z,99.90
2019-04-28T23:40:50.111Z,99.90
2019-04-28T23:43:20.158Z,99.90
2019-04-28T23:45:48.564Z,99.90
2019-04-28T23:48:16.967Z,99.90
2019-04-28T23:51:02.163Z,99.90
2019-04-28T23:53:48.423Z,99.90
2019-04-28T23:56:16.831Z,99.90
2019-04-28T23:58:45.407Z,99.90
